createdAt,value
2022-10-08T00:01:29.648Z,13.52
2022-10-08T00:03:57.693Z,10.68
2022-10-08T00:06:31.898Z,14.93
2022-10-08T00:09:05.568Z,21.10
2022-10-08T00:11:38.384Z,9.98
2022-10-08T00:14:07.741Z,11.73
2022-10-08T00:16:40.979Z,13.00
2022-10-08T00:19:15.655Z,14.60
2022-10-08T00:21:45.664Z,16.13
2022-10-08T00:24:17.475Z,14.25
2022-10-08T00:26:45.945Z,9.98
2022-10-08T00:29:17.002Z,11.57
2022-10-08T00:31:47.431Z,14.50
2022-10-08T00:34:23.127Z,14.13
2022-10-08T00:36:55.404Z,15.63
2022-10-08T00:39:25.248Z,18.13
2022-10-08T00:41:55.813Z,11.75
2022-10-08T00:44:58.946Z,13.98
2022-10-08T00:47:32.318Z,15.35
2022-10-08T00:50:06.251Z,12.02
2022-10-08T00:52:39.466Z,15.45
2022-10-08T00:55:09.998Z,10.73
2022-10-08T00:57:38.924Z,11.88
2022-10-08T01:00:12.034Z,17.00
2022-10-08T01:02:39.853Z,8.63
2022-10-08T01:05:09.172Z,17.90
2022-10-08T01:08:13.855Z,9.68
2022-10-08T01:10:57.465Z,8.85
2022-10-08T01:14:23.825Z,17.23
2022-10-08T01:17:21.849Z,9.52
2022-10-08T01:20:00.786Z,15.02
2022-10-08T01:23:07.991Z,11.65
2022-10-08T01:26:00.100Z,14.85
2022-10-08T01:29:12.993Z,6.55
2022-10-08T01:31:55.317Z,4.63
2022-10-08T01:34:48.081Z,7.10
2022-10-08T01:37:36.575Z,13.15
2022-10-08T01:40:12.482Z,8.20
2022-10-08T01:42:41.396Z,9.02
2022-10-08T01:45:22.317Z,12.07
2022-10-08T01:47:51.454Z,10.73
2022-10-08T01:50:33.481Z,9.35
2022-10-08T01:53:22.106Z,7.40
2022-10-08T01:55:53.604Z,4.93
2022-10-08T01:58:50.178Z,7.63
2022-10-08T02:02:12.489Z,11.65
2022-10-08T02:04:40.445Z,11.93
2022-10-08T02:07:11.634Z,4.82
2022-10-08T02:09:46.555Z,5.25
2022-10-08T02:12:14.646Z,5.40
2022-10-08T02:14:56.735Z,5.88
2022-10-08T02:17:38.076Z,4.38
2022-10-08T02:20:26.993Z,4.25
2022-10-08T02:23:08.702Z,7.68
2022-10-08T02:25:59.258Z,3.75
2022-10-08T02:28:47.927Z,6.22
2022-10-08T02:31:37.440Z,7.70
2022-10-08T02:34:21.665Z,8.20
2022-10-08T02:37:08.910Z,5.47
2022-10-08T02:39:43.622Z,6.30
2022-10-08T02:42:16.138Z,4.10
2022-10-08T02:45:20.995Z,4.68
2022-10-08T02:47:54.245Z,5.38
2022-10-08T02:50:25.958Z,4.70
2022-10-08T02:52:53.820Z,3.03
2022-10-08T02:56:00.705Z,13.57
2022-10-08T02:58:28.546Z,8.65
2022-10-08T03:01:35.067Z,6.47
2022-10-08T03:04:22.258Z,7.90
2022-10-08T03:06:52.974Z,5.10
2022-10-08T03:09:24.343Z,7.00
2022-10-08T03:11:54.396Z,5.07
2022-10-08T03:14:24.418Z,8.18
2022-10-08T03:16:52.305Z,10.32
2022-10-08T03:19:19.989Z,5.47
2022-10-08T03:21:52.641Z,4.18
2022-10-08T03:24:20.344Z,3.72
2022-10-08T03:26:47.865Z,3.97
2022-10-08T03:29:15.859Z,9.52
2022-10-08T03:31:43.361Z,8.93
2022-10-08T03:34:11.000Z,5.60
2022-10-08T03:36:38.684Z,7.53
2022-10-08T03:39:06.467Z,5.03
2022-10-08T03:41:34.094Z,9.32
2022-10-08T03:44:01.807Z,3.45
2022-10-08T03:46:29.415Z,8.23
2022-10-08T03:48:56.962Z,4.93
2022-10-08T03:51:24.759Z,7.53
2022-10-08T03:53:52.218Z,5.20
2022-10-08T03:56:25.495Z,4.90
2022-10-08T03:58:57.058Z,11.10
2022-10-08T04:01:26.305Z,4.13
2022-10-08T04:03:54.423Z,7.15
2022-10-08T04:06:23.139Z,7.13
2022-10-08T04:08:50.563Z,8.05
2022-10-08T04:11:19.449Z,3.65
2022-10-08T04:13:47.323Z,9.57
2022-10-08T04:16:18.302Z,7.32
2022-10-08T04:18:47.823Z,5.55
2022-10-08T04:23:46.819Z,4.95
2022-10-08T04:26:15.268Z,4.50
2022-10-08T04:28:44.835Z,3.33
2022-10-08T04:33:46.637Z,5.75
2022-10-08T04:38:52.805Z,4.67
2022-10-08T04:41:26.868Z,11.77
2022-10-08T04:44:00.140Z,6.03
2022-10-08T04:46:28.023Z,4.53
2022-10-08T04:48:57.154Z,8.88
2022-10-08T04:51:26.862Z,8.77
2022-10-08T04:53:56.349Z,4.13
2022-10-08T04:56:28.429Z,6.97
2022-10-08T04:58:58.392Z,5.60
2022-10-08T05:01:28.362Z,7.30
2022-10-08T05:03:58.651Z,14.02
2022-10-08T05:06:30.853Z,4.65
2022-10-08T05:09:04.297Z,9.02
2022-10-08T05:11:33.018Z,6.00
2022-10-08T05:14:01.372Z,5.07
2022-10-08T05:16:29.181Z,2.92
2022-10-08T05:18:57.382Z,6.05
2022-10-08T05:21:29.319Z,5.43
2022-10-08T05:24:02.013Z,5.97
2022-10-08T05:26:57.529Z,5.15
2022-10-08T05:29:22.076Z,6.03
2022-10-08T05:31:49.889Z,9.43
2022-10-08T05:34:17.892Z,3.05
2022-10-08T05:36:45.439Z,3.00
2022-10-08T05:39:13.675Z,5.93
2022-10-08T05:41:42.147Z,3.45
2022-10-08T05:44:11.448Z,4.20
2022-10-08T05:46:40.330Z,7.00
2022-10-08T05:49:16.408Z,12.70
2022-10-08T05:51:44.127Z,13.00
2022-10-08T05:54:11.748Z,4.63
2022-10-08T05:56:39.240Z,12.35
2022-10-08T05:59:07.103Z,3.95
2022-10-08T06:01:35.002Z,13.13
2022-10-08T06:04:09.005Z,5.30
2022-10-08T06:06:39.530Z,5.28
2022-10-08T06:09:08.780Z,3.70
2022-10-08T06:11:37.905Z,9.15
2022-10-08T06:16:35.644Z,3.40
2022-10-08T06:19:05.394Z,4.95
2022-10-08T06:21:34.903Z,4.63
2022-10-08T06:24:09.304Z,5.97
2022-10-08T06:26:39.934Z,8.02
2022-10-08T06:29:13.240Z,7.30
2022-10-08T06:31:41.544Z,6.97
2022-10-08T06:34:09.338Z,4.00
2022-10-08T06:36:37.976Z,3.85
2022-10-08T06:39:13.885Z,8.00
2022-10-08T06:41:41.372Z,4.95
2022-10-08T06:44:13.633Z,5.65
2022-10-08T06:46:42.325Z,5.80
2022-10-08T06:49:11.271Z,2.60
2022-10-08T06:51:38.924Z,4.45
2022-10-08T06:54:08.192Z,11.77
2022-10-08T06:56:38.685Z,3.20
2022-10-08T06:59:08.044Z,4.78
2022-10-08T07:01:36.550Z,5.97
2022-10-08T07:04:06.888Z,3.55
2022-10-08T07:06:34.876Z,7.20
2022-10-08T07:09:04.309Z,4.15
2022-10-08T07:11:33.503Z,3.72
2022-10-08T07:14:01.581Z,6.28
2022-10-08T07:16:29.697Z,10.87
2022-10-08T07:19:00.995Z,12.30
2022-10-08T07:21:29.794Z,3.45
2022-10-08T07:24:00.593Z,4.63
2022-10-08T07:26:33.196Z,10.98
2022-10-08T07:29:08.663Z,5.20
2022-10-08T07:31:37.715Z,11.55
2022-10-08T07:34:10.932Z,7.03
2022-10-08T07:36:40.011Z,14.27
2022-10-08T07:41:39.213Z,5.15
2022-10-08T07:44:07.323Z,12.73
2022-10-08T07:46:37.747Z,11.20
2022-10-08T07:49:05.704Z,14.35
2022-10-08T07:51:35.151Z,9.90
2022-10-08T07:54:06.239Z,6.78
2022-10-08T07:56:35.259Z,7.38
2022-10-08T07:59:04.797Z,7.18
2022-10-08T08:01:33.885Z,7.80
2022-10-08T08:04:05.229Z,8.23
2022-10-08T08:06:38.210Z,7.15
2022-10-08T08:09:05.931Z,5.75
2022-10-08T08:11:33.391Z,5.53
2022-10-08T08:14:00.912Z,7.22
2022-10-08T08:16:29.708Z,4.28
2022-10-08T08:19:00.690Z,3.70
2022-10-08T08:21:35.185Z,4.90
2022-10-08T08:24:12.104Z,8.20
2022-10-08T08:26:42.676Z,7.93
2022-10-08T08:29:17.012Z,5.80
2022-10-08T08:31:47.610Z,10.02
2022-10-08T08:34:22.073Z,2.35
2022-10-08T08:36:53.800Z,4.00
2022-10-08T08:39:28.471Z,6.32
2022-10-08T08:42:20.341Z,5.78
2022-10-08T08:44:57.086Z,5.68
2022-10-08T08:47:35.442Z,2.58
2022-10-08T08:50:31.526Z,5.80
2022-10-08T08:52:59.974Z,4.88
2022-10-08T08:55:45.639Z,3.97
2022-10-08T08:58:42.093Z,8.18
2022-10-08T09:01:09.588Z,4.95
2022-10-08T09:03:51.925Z,2.88
2022-10-08T09:06:26.031Z,5.78
2022-10-08T09:09:06.809Z,7.20
2022-10-08T09:11:36.145Z,6.50
2022-10-08T09:14:28.473Z,5.15
2022-10-08T09:16:57.501Z,2.67
2022-10-08T09:21:52.791Z,3.17
2022-10-08T09:24:20.603Z,4.45
2022-10-08T09:26:48.444Z,12.50
2022-10-08T09:29:34.898Z,4.55
2022-10-08T09:32:03.867Z,4.30
2022-10-08T09:34:31.703Z,3.17
2022-10-08T09:37:01.995Z,4.60
2022-10-08T09:39:37.123Z,4.20
2022-10-08T09:42:07.713Z,4.03
2022-10-08T09:44:59.130Z,5.90
2022-10-08T09:47:27.552Z,4.45
2022-10-08T09:50:21.876Z,6.05
2022-10-08T09:52:53.440Z,6.03
2022-10-08T09:55:30.060Z,4.35
2022-10-08T09:58:04.138Z,7.03
2022-10-08T10:00:36.046Z,2.97
2022-10-08T10:03:16.575Z,6.15
2022-10-08T10:05:50.566Z,3.72
2022-10-08T10:08:55.940Z,4.40
2022-10-08T10:11:33.074Z,3.55
2022-10-08T10:14:14.831Z,10.20
2022-10-08T10:16:45.730Z,4.63
2022-10-08T10:19:28.575Z,3.80
2022-10-08T10:22:12.348Z,2.30
2022-10-08T10:25:08.553Z,3.10
2022-10-08T10:27:43.345Z,2.38
2022-10-08T10:30:23.639Z,7.95
2022-10-08T10:33:00.464Z,2.95
2022-10-08T10:35:32.837Z,2.83
2022-10-08T10:38:17.703Z,7.63
2022-10-08T10:41:04.591Z,4.85
2022-10-08T10:44:00.602Z,2.67
2022-10-08T10:46:39.689Z,3.17
2022-10-08T10:49:29.110Z,9.50
2022-10-08T10:52:23.988Z,7.93
2022-10-08T10:55:27.987Z,6.43
2022-10-08T10:58:40.422Z,4.75
2022-10-08T11:01:32.289Z,3.58
2022-10-08T11:04:33.151Z,1.85
2022-10-08T11:07:23.330Z,4.72
2022-10-08T11:10:39.806Z,3.50
2022-10-08T11:13:36.568Z,9.50
2022-10-08T11:16:38.852Z,3.20
2022-10-08T11:19:35.191Z,4.75
2022-10-08T11:22:26.439Z,1.92
2022-10-08T11:25:26.645Z,3.40
2022-10-08T11:28:40.268Z,3.30
2022-10-08T11:52:14.521Z,9.57
2022-10-08T11:58:02.956Z,9.73
2022-10-08T12:00:37.711Z,2.22
2022-10-08T12:06:32.938Z,2.22
2022-10-08T12:09:08.396Z,3.25
2022-10-08T12:11:37.434Z,2.25
2022-10-08T12:14:14.466Z,2.63
2022-10-08T12:17:05.189Z,5.88
2022-10-08T12:19:38.066Z,5.38
2022-10-08T12:22:28.347Z,3.85
2022-10-08T12:25:01.028Z,5.43
2022-10-08T12:27:33.496Z,4.95
2022-10-08T12:30:08.643Z,2.53
2022-10-08T12:32:42.465Z,3.53
2022-10-08T12:35:37.602Z,3.13
2022-10-08T12:38:23.923Z,8.95
2022-10-08T12:41:09.346Z,3.95
2022-10-08T12:44:02.289Z,2.35
2022-10-08T12:47:16.372Z,2.45
2022-10-08T12:50:27.739Z,3.92
2022-10-08T12:52:55.490Z,8.23
2022-10-08T12:55:24.722Z,3.92
2022-10-08T13:00:31.783Z,2.97
2022-10-08T13:03:17.635Z,8.07
2022-10-08T13:05:45.389Z,3.30
2022-10-08T13:08:37.097Z,3.23
2022-10-08T13:11:15.981Z,5.78
2022-10-08T13:13:52.854Z,3.83
2022-10-08T13:16:27.004Z,2.88
2022-10-08T13:18:58.904Z,2.45
2022-10-08T13:21:35.828Z,4.50
2022-10-08T13:24:12.603Z,2.00
2022-10-08T13:26:52.318Z,6.72
2022-10-08T13:29:33.693Z,2.92
2022-10-08T13:32:12.339Z,14.30
2022-10-08T13:34:41.579Z,3.50
2022-10-08T13:37:30.922Z,3.88
2022-10-08T13:40:11.983Z,2.30
2022-10-08T13:42:49.572Z,5.72
2022-10-08T13:45:29.214Z,5.30
2022-10-08T13:47:59.164Z,16.40
2022-10-08T13:50:27.162Z,5.45
2022-10-08T13:52:59.070Z,3.30
2022-10-08T13:55:38.838Z,4.22
2022-10-08T13:58:07.303Z,3.85
2022-10-08T14:00:39.988Z,2.97
2022-10-08T14:03:08.587Z,4.68
2022-10-08T14:05:41.762Z,9.25
2022-10-08T14:08:29.641Z,3.50
2022-10-08T14:10:58.436Z,5.20
2022-10-08T14:13:26.819Z,7.95
2022-10-08T14:15:54.568Z,5.07
2022-10-08T14:18:22.580Z,6.30
2022-10-08T14:20:51.662Z,5.43
2022-10-08T14:23:20.311Z,7.80
2022-10-08T14:28:15.468Z,5.45
2022-10-08T14:30:43.024Z,8.25
2022-10-08T14:33:11.761Z,9.18
2022-10-08T14:35:39.965Z,4.57
2022-10-08T14:38:08.697Z,10.20
2022-10-08T14:40:36.468Z,6.80
2022-10-08T14:43:04.307Z,7.60
2022-10-08T14:45:31.890Z,7.85
2022-10-08T14:47:59.572Z,10.60
2022-10-08T14:50:27.360Z,8.93
2022-10-08T14:52:54.894Z,16.27
2022-10-08T14:55:22.358Z,10.73
2022-10-08T14:57:50.668Z,14.57
2022-10-08T15:00:18.325Z,19.73
2022-10-08T15:02:46.028Z,16.25
2022-10-08T15:05:13.992Z,24.77
2022-10-08T15:07:41.460Z,7.90
2022-10-08T15:10:09.456Z,11.32
2022-10-08T15:12:37.286Z,8.75
2022-10-08T15:15:06.838Z,11.88
2022-10-08T15:17:34.485Z,8.88
2022-10-08T15:20:03.280Z,9.68
2022-10-08T15:22:30.809Z,13.63
2022-10-08T15:24:59.329Z,10.52
2022-10-08T15:27:27.075Z,12.80
2022-10-08T15:29:54.630Z,8.60
2022-10-08T15:32:26.069Z,22.40
2022-10-08T15:34:56.391Z,14.70
2022-10-08T15:37:24.076Z,9.75
2022-10-08T15:39:51.872Z,9.95
2022-10-08T15:42:19.627Z,7.53
2022-10-08T15:44:47.891Z,8.93
2022-10-08T15:47:16.537Z,11.23
2022-10-08T15:49:45.922Z,12.55
2022-10-08T15:54:43.320Z,38.08
2022-10-08T15:57:14.958Z,59.90
2022-10-08T15:59:42.985Z,71.50
2022-10-08T16:02:16.960Z,64.47
2022-10-08T16:04:47.540Z,41.80
2022-10-08T16:07:16.404Z,30.30
2022-10-08T16:09:44.225Z,29.13
2022-10-08T16:12:11.869Z,22.73
2022-10-08T16:14:39.402Z,20.70
2022-10-08T16:17:06.998Z,22.95
2022-10-08T16:19:34.844Z,35.20
2022-10-08T16:22:02.354Z,30.63
2022-10-08T16:24:29.979Z,27.73
2022-10-08T16:26:57.985Z,29.17
2022-10-08T16:29:25.589Z,34.45
2022-10-08T16:31:53.265Z,19.42
2022-10-08T16:34:23.654Z,24.90
2022-10-08T16:36:51.400Z,24.92
2022-10-08T16:39:21.846Z,14.40
2022-10-08T16:41:50.322Z,14.73
2022-10-08T16:44:20.388Z,11.23
2022-10-08T16:46:53.132Z,17.70
2022-10-08T16:49:28.152Z,20.65
2022-10-08T16:52:05.183Z,28.50
2022-10-08T16:54:33.342Z,32.38
2022-10-08T16:57:00.906Z,30.27
2022-10-08T16:59:30.675Z,26.92
2022-10-08T17:02:00.582Z,33.35
2022-10-08T17:04:29.945Z,39.08
2022-10-08T17:06:57.585Z,23.88
2022-10-08T17:09:25.357Z,27.50
2022-10-08T17:11:53.325Z,19.90
2022-10-08T17:14:20.844Z,9.80
2022-10-08T17:16:49.873Z,11.57
2022-10-08T17:19:17.922Z,12.52
2022-10-08T17:21:45.555Z,12.45
2022-10-08T17:24:13.377Z,9.38
2022-10-08T17:26:42.016Z,13.20
2022-10-08T17:29:12.536Z,15.95
2022-10-08T17:31:41.086Z,5.88
2022-10-08T17:34:09.685Z,7.65
2022-10-08T17:36:41.604Z,10.93
2022-10-08T17:39:13.386Z,10.90
2022-10-08T17:41:42.596Z,9.05
2022-10-08T17:46:47.356Z,8.80
2022-10-08T17:49:20.454Z,17.02
2022-10-08T17:51:48.580Z,20.55
2022-10-08T17:54:19.781Z,7.07
2022-10-08T17:56:48.278Z,11.43
2022-10-08T17:59:18.701Z,16.92
2022-10-08T18:01:46.942Z,17.02
2022-10-08T18:04:17.407Z,18.15
2022-10-08T18:06:47.083Z,6.70
2022-10-08T18:09:19.209Z,9.80
2022-10-08T18:11:51.878Z,12.10
2022-10-08T18:14:22.021Z,5.82
2022-10-08T18:16:50.464Z,13.10
2022-10-08T18:19:18.868Z,8.43
2022-10-08T18:21:46.847Z,6.82
2022-10-08T18:24:15.872Z,9.10
2022-10-08T18:26:43.986Z,6.95
2022-10-08T18:29:14.270Z,16.50
2022-10-08T18:31:44.317Z,16.23
2022-10-08T18:34:18.414Z,16.25
2022-10-08T18:36:46.452Z,11.25
2022-10-08T18:39:23.555Z,10.70
2022-10-08T18:41:55.421Z,7.15
2022-10-08T18:44:25.494Z,12.45
2022-10-08T18:46:53.715Z,9.88
2022-10-08T18:49:30.628Z,12.83
2022-10-08T18:51:59.021Z,18.05
2022-10-08T18:54:26.754Z,17.77
2022-10-08T18:56:55.426Z,19.25
2022-10-08T18:59:23.488Z,16.30
2022-10-08T19:01:53.075Z,15.20
2022-10-08T19:04:23.081Z,14.52
2022-10-08T19:06:55.720Z,6.25
2022-10-08T19:09:23.449Z,10.05
2022-10-08T19:11:54.228Z,16.63
2022-10-08T19:14:23.141Z,11.90
2022-10-08T19:19:22.111Z,10.93
2022-10-08T19:21:51.152Z,6.75
2022-10-08T19:24:23.297Z,10.82
2022-10-08T19:26:52.097Z,8.15
2022-10-08T19:31:50.563Z,9.25
2022-10-08T19:34:24.826Z,11.73
2022-10-08T19:36:53.268Z,6.97
2022-10-08T19:39:24.843Z,10.07
2022-10-08T19:41:53.070Z,5.60
2022-10-08T19:44:21.642Z,7.93
2022-10-08T19:46:49.659Z,9.60
2022-10-08T19:49:18.250Z,7.40
2022-10-08T19:51:46.369Z,8.18
2022-10-08T19:54:14.475Z,17.52
2022-10-08T19:56:42.433Z,11.32
2022-10-08T19:59:11.740Z,12.68
2022-10-08T20:01:41.630Z,14.48
2022-10-08T20:04:10.388Z,10.50
2022-10-08T20:06:40.872Z,16.20
2022-10-08T20:09:12.186Z,12.95
2022-10-08T20:11:42.802Z,8.32
2022-10-08T20:14:12.220Z,24.27
2022-10-08T20:16:42.438Z,13.32
2022-10-08T20:19:20.941Z,11.55
2022-10-08T20:21:50.537Z,14.77
2022-10-08T20:24:19.772Z,14.50
2022-10-08T20:26:49.109Z,17.05
2022-10-08T20:29:27.444Z,12.07
2022-10-08T20:31:58.129Z,14.52
2022-10-08T20:34:30.925Z,20.30
2022-10-08T20:37:01.585Z,15.70
2022-10-08T20:39:30.078Z,18.75
2022-10-08T20:41:58.505Z,13.50
2022-10-08T20:44:26.331Z,24.90
2022-10-08T20:46:54.278Z,18.10
2022-10-08T20:49:21.857Z,20.95
2022-10-08T20:51:49.616Z,20.88
2022-10-08T20:54:17.600Z,15.90
2022-10-08T20:56:45.779Z,21.15
2022-10-08T20:59:19.052Z,26.87
2022-10-08T21:01:49.189Z,21.83
2022-10-08T21:04:17.544Z,16.80
2022-10-08T21:06:48.369Z,27.17
2022-10-08T21:09:18.494Z,22.63
2022-10-08T21:11:46.531Z,17.52
2022-10-08T21:14:23.615Z,18.40
2022-10-08T21:16:53.501Z,23.10
2022-10-08T21:19:22.271Z,19.25
2022-10-08T21:21:49.959Z,28.15
2022-10-08T21:24:17.856Z,16.65
2022-10-08T21:26:45.338Z,25.33
2022-10-08T21:29:14.351Z,29.08
2022-10-08T21:34:12.743Z,25.08
2022-10-08T21:36:41.318Z,23.02
2022-10-08T21:39:15.648Z,31.65
2022-10-08T21:41:43.474Z,28.25
2022-10-08T21:44:11.419Z,25.02
2022-10-08T21:46:42.005Z,24.30
2022-10-08T21:49:22.275Z,28.35
2022-10-08T21:51:50.185Z,22.27
2022-10-08T21:54:18.144Z,30.15
2022-10-08T21:56:45.908Z,28.15
2022-10-08T21:59:16.041Z,22.40
2022-10-08T22:01:49.867Z,33.10
2022-10-08T22:04:24.850Z,30.63
2022-10-08T22:06:58.281Z,29.40
2022-10-08T22:09:30.698Z,25.80
2022-10-08T22:11:59.444Z,31.70
2022-10-08T22:14:28.550Z,33.28
2022-10-08T22:16:56.765Z,28.73
2022-10-08T22:19:24.280Z,21.25
2022-10-08T22:21:52.267Z,25.15
2022-10-08T22:24:19.838Z,27.05
2022-10-08T22:26:48.345Z,28.52
2022-10-08T22:29:16.904Z,25.00
2022-10-08T22:31:45.004Z,23.90
2022-10-08T22:34:12.972Z,23.75
2022-10-08T22:36:43.703Z,25.38
2022-10-08T22:39:11.817Z,27.80
2022-10-08T22:41:39.688Z,22.13
2022-10-08T22:44:07.667Z,26.08
2022-10-08T22:46:40.013Z,24.58
2022-10-08T22:49:12.336Z,28.70
2022-10-08T22:51:40.609Z,20.45
2022-10-08T22:54:08.207Z,24.58
2022-10-08T22:56:36.266Z,27.02
2022-10-08T22:59:03.863Z,25.10
2022-10-08T23:01:31.550Z,27.35
2022-10-08T23:03:59.623Z,28.50
2022-10-08T23:06:31.520Z,29.10
2022-10-08T23:09:11.279Z,29.98
2022-10-08T23:11:39.253Z,33.20
2022-10-08T23:14:07.283Z,34.25
2022-10-08T23:16:35.288Z,34.30
2022-10-08T23:19:09.180Z,33.17
2022-10-08T23:21:36.958Z,35.92
2022-10-08T23:24:05.820Z,29.88
2022-10-08T23:26:34.721Z,38.25
2022-10-08T23:29:03.831Z,30.67
2022-10-08T23:31:36.079Z,39.42
2022-10-08T23:34:06.042Z,39.80
2022-10-08T23:36:37.662Z,40.58
2022-10-08T23:39:07.681Z,43.75
2022-10-08T23:41:37.137Z,45.03
2022-10-08T23:44:05.608Z,50.67
2022-10-08T23:46:33.401Z,59.90
2022-10-08T23:49:01.852Z,48.67
2022-10-08T23:51:31.673Z,49.25
2022-10-08T23:53:59.937Z,54.38
2022-10-08T23:56:28.070Z,49.90
2022-10-08T23:58:55.633Z,46.47
